Time;durP1;ratioP1;P1;durP2;ratioP2;P2;SDS_P1;SDS_P2;PMS_P1;PMS_P2;Temp;Humidity;BMP_temperature;BMP_pressure;BME280_temperature;BME280_humidity;BME280_pressure;Samples;Min_cycle;Max_cycle;Signal;HPM_P1;HPM_P2
2023/07/26 00:01:49;;;;;;;3.00;0.70;;;;;;;;;;5067950;28;20151;-68
2023/07/26 00:04:16;;;;;;;1.42;0.77;;;;;;;;;;5067323;28;20044;-68
2023/07/26 00:06:43;;;;;;;2.53;1.00;;;;;;;;;;5068060;28;20503;-68
2023/07/26 00:09:11;;;;;;;1.15;0.55;;;;;;;;;;5067494;28;20056;-68
2023/07/26 00:11:38;;;;;;;1.73;0.80;;;;;;;;;;5067392;28;20059;-69
2023/07/26 00:14:05;;;;;;;1.30;0.60;;;;;;;;;;5052171;28;20097;-69
2023/07/26 00:16:34;;;;;;;1.73;0.60;;;;;;;;;;5067600;28;20430;-69
2023/07/26 00:19:02;;;;;;;2.85;0.60;;;;;;;;;;5069627;28;20052;-69
2023/07/26 00:21:29;;;;;;;2.08;0.85;;;;;;;;;;5068254;28;20084;-69
2023/07/26 00:23:58;;;;;;;1.35;0.63;;;;;;;;;;5066131;28;20055;-69
2023/07/26 00:26:26;;;;;;;0.95;0.70;;;;;;;;;;5063876;28;20048;-69
2023/07/26 00:28:53;;;;;;;1.65;0.73;;;;;;;;;;5067618;28;20040;-69
2023/07/26 00:31:20;;;;;;;2.05;1.00;;;;;;;;;;5067386;28;20088;-69
2023/07/26 00:33:49;;;;;;;2.08;0.88;;;;;;;;;;5066187;28;20063;-69
2023/07/26 00:36:16;;;;;;;2.60;0.60;;;;;;;;;;5065449;28;20087;-69
2023/07/26 00:38:44;;;;;;;2.75;0.80;;;;;;;;;;5066772;28;20056;-69
2023/07/26 00:41:11;;;;;;;6.13;0.93;;;;;;;;;;5067634;28;20044;-69
2023/07/26 00:43:38;;;;;;;2.80;0.88;;;;;;;;;;5064783;28;20057;-69
2023/07/26 00:46:07;;;;;;;1.95;0.82;;;;;;;;;;5068234;28;20508;-69
2023/07/26 00:48:35;;;;;;;1.48;0.80;;;;;;;;;;5066934;28;20503;-69
2023/07/26 00:51:04;;;;;;;2.28;1.00;;;;;;;;;;5068387;28;20066;-70
2023/07/26 00:53:31;;;;;;;4.20;1.05;;;;;;;;;;5069547;28;20052;-69
2023/07/26 00:55:59;;;;;;;5.43;1.20;;;;;;;;;;5070545;28;20048;-69
2023/07/26 00:58:26;;;;;;;2.05;0.73;;;;;;;;;;5054079;28;20129;-69
2023/07/26 01:00:55;;;;;;;6.20;1.05;;;;;;;;;;5070431;28;20044;-68
2023/07/26 01:03:22;;;;;;;2.47;0.95;;;;;;;;;;5055502;28;20063;-69
2023/07/26 01:05:54;;;;;;;3.13;1.15;;;;;;;;;;5073309;28;20049;-69
2023/07/26 01:08:29;;;;;;;3.80;1.00;;;;;;;;;;5068884;28;20060;-69
2023/07/26 01:10:58;;;;;;;3.28;1.00;;;;;;;;;;5070970;28;20075;-69
2023/07/26 01:13:29;;;;;;;1.75;0.80;;;;;;;;;;5070718;28;20381;-69
2023/07/26 01:15:57;;;;;;;3.83;0.95;;;;;;;;;;5069184;28;20052;-69
2023/07/26 01:18:25;;;;;;;1.58;0.80;;;;;;;;;;5075790;28;20463;-69
2023/07/26 01:20:52;;;;;;;5.25;0.90;;;;;;;;;;5070168;28;20063;-69
2023/07/26 01:23:21;;;;;;;2.50;1.00;;;;;;;;;;5071932;28;20068;-69
2023/07/26 01:25:48;;;;;;;3.70;1.00;;;;;;;;;;5069246;28;20161;-69
2023/07/26 01:28:15;;;;;;;3.92;0.85;;;;;;;;;;5071515;28;20110;-69
2023/07/26 01:30:43;;;;;;;1.65;0.85;;;;;;;;;;5069580;28;20473;-69
2023/07/26 01:33:11;;;;;;;2.95;0.80;;;;;;;;;;5071180;28;20114;-69
2023/07/26 01:35:39;;;;;;;2.22;0.75;;;;;;;;;;5068096;28;20127;-69
2023/07/26 01:38:07;;;;;;;2.08;0.77;;;;;;;;;;5071830;28;20056;-69
2023/07/26 01:40:36;;;;;;;3.10;0.90;;;;;;;;;;5069777;28;20071;-69
2023/07/26 01:43:04;;;;;;;1.27;0.98;;;;;;;;;;5071672;28;20044;-69
2023/07/26 01:45:31;;;;;;;3.13;0.85;;;;;;;;;;5069723;28;20411;-69
2023/07/26 01:47:59;;;;;;;4.13;1.05;;;;;;;;;;5070568;28;20056;-69
2023/07/26 01:50:27;;;;;;;2.28;0.88;;;;;;;;;;5069369;28;20076;-69
2023/07/26 01:52:54;;;;;;;6.22;1.20;;;;;;;;;;5073764;28;20050;-69
2023/07/26 01:55:21;;;;;;;4.95;1.30;;;;;;;;;;5065610;28;20372;-69
2023/07/26 01:57:50;;;;;;;3.25;1.00;;;;;;;;;;5068917;28;20059;-68
2023/07/26 02:00:17;;;;;;;2.05;1.05;;;;;;;;;;5067156;28;20057;-69
2023/07/26 02:02:44;;;;;;;3.05;1.10;;;;;;;;;;5070712;28;20040;-69
2023/07/26 02:05:12;;;;;;;1.42;0.60;;;;;;;;;;5067791;28;20487;-69
2023/07/26 02:07:39;;;;;;;1.98;0.95;;;;;;;;;;5064161;28;20095;-69
2023/07/26 02:10:07;;;;;;;3.03;1.23;;;;;;;;;;5069436;28;20083;-69
2023/07/26 02:12:34;;;;;;;3.58;0.90;;;;;;;;;;5072317;28;20071;-69
2023/07/26 02:15:03;;;;;;;3.10;1.30;;;;;;;;;;5063996;28;20768;-69
2023/07/26 02:17:30;;;;;;;2.17;1.00;;;;;;;;;;5075937;28;20044;-69
2023/07/26 02:19:57;;;;;;;2.75;1.02;;;;;;;;;;5068346;28;20048;-69
2023/07/26 02:22:25;;;;;;;1.83;0.80;;;;;;;;;;5067178;28;20135;-69
2023/07/26 02:24:52;;;;;;;2.55;0.88;;;;;;;;;;5066916;28;20052;-69
2023/07/26 02:27:19;;;;;;;1.85;0.90;;;;;;;;;;5069705;28;20051;-69
2023/07/26 02:29:46;;;;;;;1.85;0.80;;;;;;;;;;5069197;28;20040;-69
2023/07/26 02:32:15;;;;;;;0.98;0.80;;;;;;;;;;5067627;28;20059;-70
2023/07/26 02:34:42;;;;;;;4.78;1.00;;;;;;;;;;5070359;28;20055;-67
2023/07/26 02:37:10;;;;;;;1.73;0.95;;;;;;;;;;5069804;28;20037;-66
2023/07/26 02:39:37;;;;;;;2.50;1.05;;;;;;;;;;5065977;28;20055;-66
2023/07/26 02:42:04;;;;;;;2.08;1.00;;;;;;;;;;5069948;28;20041;-67
2023/07/26 02:44:32;;;;;;;3.63;0.80;;;;;;;;;;5069712;28;20053;-69
2023/07/26 02:46:59;;;;;;;2.15;1.10;;;;;;;;;;5069678;28;20084;-68
2023/07/26 02:49:28;;;;;;;4.18;1.25;;;;;;;;;;5067228;28;20054;-67
2023/07/26 02:51:55;;;;;;;2.70;1.15;;;;;;;;;;5061800;28;20056;-67
2023/07/26 02:54:22;;;;;;;2.90;1.13;;;;;;;;;;5064960;28;20055;-67
2023/07/26 02:56:49;;;;;;;7.47;1.13;;;;;;;;;;5068959;28;20046;-67
2023/07/26 02:59:17;;;;;;;3.50;1.20;;;;;;;;;;5069402;28;20045;-67
2023/07/26 03:01:44;;;;;;;3.08;1.45;;;;;;;;;;5069796;28;20403;-67
2023/07/26 03:04:12;;;;;;;3.05;1.00;;;;;;;;;;5072083;28;20056;-68
2023/07/26 03:06:41;;;;;;;6.65;1.10;;;;;;;;;;5069564;28;20096;-67
2023/07/26 03:09:08;;;;;;;3.38;1.17;;;;;;;;;;5068781;28;20049;-67
2023/07/26 03:11:36;;;;;;;6.57;1.10;;;;;;;;;;5068465;28;20131;-67
2023/07/26 03:14:03;;;;;;;6.38;1.30;;;;;;;;;;5068380;28;20133;-67
2023/07/26 03:16:31;;;;;;;7.07;1.25;;;;;;;;;;5068717;28;20052;-67
2023/07/26 03:18:58;;;;;;;6.45;1.23;;;;;;;;;;5066644;28;20106;-67
2023/07/26 03:21:26;;;;;;;2.63;1.00;;;;;;;;;;5067338;28;20135;-67
2023/07/26 03:23:54;;;;;;;3.85;0.90;;;;;;;;;;5064987;28;20411;-67
2023/07/26 03:26:21;;;;;;;5.68;1.33;;;;;;;;;;5069086;28;20048;-66
2023/07/26 03:28:49;;;;;;;1.50;0.77;;;;;;;;;;5069179;28;20488;-67
2023/07/26 03:31:16;;;;;;;3.15;1.00;;;;;;;;;;5068488;28;20430;-66
2023/07/26 03:33:43;;;;;;;6.95;1.48;;;;;;;;;;5069031;28;20048;-67
2023/07/26 03:36:11;;;;;;;7.05;1.20;;;;;;;;;;5068368;28;20052;-67
2023/07/26 03:38:38;;;;;;;5.90;1.02;;;;;;;;;;5068924;28;20063;-67
2023/07/26 03:41:06;;;;;;;3.60;0.98;;;;;;;;;;5068352;28;20475;-66
2023/07/26 03:43:34;;;;;;;2.80;0.90;;;;;;;;;;5069085;28;20045;-67
2023/07/26 03:46:01;;;;;;;3.65;1.20;;;;;;;;;;5067646;28;20391;-67
2023/07/26 03:48:28;;;;;;;2.28;1.08;;;;;;;;;;5068745;28;20048;-67
2023/07/26 03:50:56;;;;;;;2.60;0.80;;;;;;;;;;5067608;28;20139;-67
2023/07/26 03:53:23;;;;;;;2.58;0.88;;;;;;;;;;5068621;28;20048;-66
2023/07/26 03:55:50;;;;;;;5.97;1.00;;;;;;;;;;5067755;28;20051;-67
2023/07/26 03:58:19;;;;;;;3.03;1.20;;;;;;;;;;5067311;28;20514;-67
2023/07/26 04:00:46;;;;;;;6.13;0.90;;;;;;;;;;5064887;28;20050;-68
2023/07/26 04:03:14;;;;;;;2.25;0.80;;;;;;;;;;5070229;28;20044;-67
2023/07/26 04:05:41;;;;;;;4.68;1.02;;;;;;;;;;5066327;28;20500;-68
2023/07/26 04:08:08;;;;;;;2.45;0.80;;;;;;;;;;5067686;28;20048;-68
2023/07/26 04:10:35;;;;;;;4.10;1.10;;;;;;;;;;5066074;28;20044;-67
2023/07/26 04:13:03;;;;;;;2.65;0.98;;;;;;;;;;5071091;28;20411;-67
2023/07/26 04:15:33;;;;;;;2.25;0.90;;;;;;;;;;5068502;28;20357;-67
2023/07/26 04:18:00;;;;;;;4.25;1.00;;;;;;;;;;5069058;28;20538;-67
2023/07/26 04:20:27;;;;;;;7.07;1.00;;;;;;;;;;5066804;28;20055;-67
2023/07/26 04:22:55;;;;;;;5.88;1.00;;;;;;;;;;5068065;28;20391;-67
2023/07/26 04:25:22;;;;;;;2.95;1.08;;;;;;;;;;5051998;28;20071;-67
2023/07/26 04:27:49;;;;;;;3.35;1.02;;;;;;;;;;5055103;28;20056;-67
2023/07/26 04:30:16;;;;;;;2.17;1.10;;;;;;;;;;5074474;28;20926;-70
2023/07/26 04:32:45;;;;;;;2.72;0.95;;;;;;;;;;5072404;28;20411;-70
2023/07/26 04:35:12;;;;;;;2.40;1.05;;;;;;;;;;5057814;28;20048;-70
2023/07/26 04:37:39;;;;;;;4.10;1.05;;;;;;;;;;5073468;28;20434;-69
2023/07/26 04:40:07;;;;;;;5.70;0.95;;;;;;;;;;5059433;28;20051;-68
2023/07/26 04:42:35;;;;;;;2.67;1.00;;;;;;;;;;5072498;28;20695;-68
2023/07/26 04:45:02;;;;;;;2.88;0.80;;;;;;;;;;5072625;28;20455;-69
2023/07/26 04:47:31;;;;;;;1.77;0.80;;;;;;;;;;5074892;28;20484;-69
2023/07/26 04:50:00;;;;;;;3.05;1.13;;;;;;;;;;5074970;28;20050;-68
2023/07/26 04:52:27;;;;;;;2.67;0.98;;;;;;;;;;5074830;28;20140;-68
2023/07/26 04:54:56;;;;;;;8.68;1.40;;;;;;;;;;5073622;28;20386;-68
2023/07/26 04:57:23;;;;;;;4.38;1.13;;;;;;;;;;5073479;28;20058;-68
2023/07/26 04:59:50;;;;;;;9.75;1.15;;;;;;;;;;5068759;28;20403;-68
2023/07/26 05:02:17;;;;;;;3.20;1.10;;;;;;;;;;5074312;28;20049;-68
2023/07/26 05:04:44;;;;;;;5.03;0.93;;;;;;;;;;5074949;28;20752;-68
2023/07/26 05:07:13;;;;;;;3.78;0.98;;;;;;;;;;5074210;28;20127;-68
2023/07/26 05:09:40;;;;;;;3.80;1.20;;;;;;;;;;5073803;28;20064;-68
2023/07/26 05:12:08;;;;;;;3.80;1.08;;;;;;;;;;5074179;28;20052;-67
2023/07/26 05:14:38;;;;;;;3.38;1.27;;;;;;;;;;5074574;28;20119;-68
2023/07/26 05:17:06;;;;;;;3.47;1.05;;;;;;;;;;5073021;28;20040;-68
2023/07/26 05:19:33;;;;;;;3.55;1.33;;;;;;;;;;5075046;28;20162;-68
2023/07/26 05:22:00;;;;;;;4.05;1.33;;;;;;;;;;5073845;28;20049;-68
2023/07/26 05:24:30;;;;;;;5.65;0.90;;;;;;;;;;5074518;28;20056;-68
2023/07/26 05:26:59;;;;;;;3.42;1.40;;;;;;;;;;5074010;28;20056;-68
2023/07/26 05:29:27;;;;;;;3.42;1.15;;;;;;;;;;5074320;28;20050;-68
2023/07/26 05:31:55;;;;;;;3.65;1.20;;;;;;;;;;5074370;28;20055;-68
2023/07/26 05:34:22;;;;;;;3.00;1.25;;;;;;;;;;5073195;28;20044;-68
2023/07/26 05:36:49;;;;;;;9.27;1.40;;;;;;;;;;5074740;28;20063;-67
2023/07/26 05:39:16;;;;;;;3.97;1.42;;;;;;;;;;5071343;28;20048;-67
2023/07/26 05:41:45;;;;;;;5.65;1.30;;;;;;;;;;5064784;28;20227;-67
2023/07/26 05:44:12;;;;;;;1.95;0.90;;;;;;;;;;5070231;28;20052;-67
2023/07/26 05:46:40;;;;;;;2.60;1.10;;;;;;;;;;5075244;28;20135;-66
2023/07/26 05:49:09;;;;;;;5.93;1.10;;;;;;;;;;5069849;28;20055;-67
2023/07/26 05:51:36;;;;;;;3.33;1.10;;;;;;;;;;5070422;28;20483;-66
2023/07/26 05:54:03;;;;;;;4.68;0.90;;;;;;;;;;5070561;28;20388;-66
2023/07/26 05:56:31;;;;;;;3.47;0.95;;;;;;;;;;5070227;28;20470;-67
2023/07/26 05:58:59;;;;;;;5.18;1.10;;;;;;;;;;5070478;28;20048;-67
2023/07/26 06:01:27;;;;;;;4.90;1.02;;;;;;;;;;5072179;28;20045;-67
2023/07/26 06:03:54;;;;;;;3.03;0.98;;;;;;;;;;5070479;28;20461;-67
2023/07/26 06:06:21;;;;;;;10.27;1.10;;;;;;;;;;5071213;28;20424;-66
2023/07/26 06:08:49;;;;;;;8.25;0.90;;;;;;;;;;5073064;28;20048;-67
2023/07/26 06:11:16;;;;;;;2.30;0.95;;;;;;;;;;5069928;28;20139;-67
2023/07/26 06:13:43;;;;;;;6.18;1.00;;;;;;;;;;5070232;28;20044;-67
2023/07/26 06:16:12;;;;;;;3.05;1.00;;;;;;;;;;5071058;28;20403;-67
2023/07/26 06:18:40;;;;;;;2.50;1.15;;;;;;;;;;5052277;28;20048;-67
2023/07/26 06:21:07;;;;;;;2.42;0.93;;;;;;;;;;5055248;28;20059;-67
2023/07/26 06:23:34;;;;;;;2.85;0.95;;;;;;;;;;5069584;28;20080;-67
2023/07/26 06:26:01;;;;;;;3.97;0.77;;;;;;;;;;5070596;28;20040;-67
2023/07/26 06:28:29;;;;;;;2.90;1.30;;;;;;;;;;5070126;28;20076;-67
2023/07/26 06:30:57;;;;;;;2.28;1.23;;;;;;;;;;5069435;28;20045;-67
2023/07/26 06:33:25;;;;;;;3.38;1.05;;;;;;;;;;5069987;28;20044;-67
2023/07/26 06:35:54;;;;;;;4.47;1.20;;;;;;;;;;5068549;28;20049;-67
2023/07/26 06:38:22;;;;;;;2.30;1.17;;;;;;;;;;5068494;28;20036;-67
2023/07/26 06:40:50;;;;;;;1.40;0.90;;;;;;;;;;5068561;28;20048;-67
2023/07/26 06:43:17;;;;;;;3.70;0.88;;;;;;;;;;5070847;28;20056;-67
2023/07/26 06:45:46;;;;;;;5.13;1.30;;;;;;;;;;5069552;28;20052;-68
2023/07/26 06:48:14;;;;;;;2.28;1.10;;;;;;;;;;5070088;28;20074;-67
2023/07/26 06:50:42;;;;;;;3.55;1.40;;;;;;;;;;5069625;28;20162;-68
2023/07/26 06:53:10;;;;;;;3.35;1.25;;;;;;;;;;5053191;28;20109;-68
2023/07/26 06:55:38;;;;;;;2.75;1.55;;;;;;;;;;5050685;28;20053;-68
2023/07/26 06:58:05;;;;;;;3.40;1.40;;;;;;;;;;5068281;28;20571;-68
2023/07/26 07:00:33;;;;;;;4.30;1.73;;;;;;;;;;5062355;28;20052;-67
2023/07/26 07:03:01;;;;;;;4.45;1.88;;;;;;;;;;5070663;28;20056;-67
2023/07/26 07:05:29;;;;;;;4.53;1.70;;;;;;;;;;5069159;28;20525;-67
2023/07/26 07:07:58;;;;;;;3.20;1.75;;;;;;;;;;5070267;28;20053;-68
2023/07/26 07:10:25;;;;;;;3.58;1.80;;;;;;;;;;5068035;28;20582;-68
2023/07/26 07:12:52;;;;;;;3.25;1.85;;;;;;;;;;5056926;28;20054;-68
2023/07/26 07:15:20;;;;;;;3.53;1.45;;;;;;;;;;5068877;28;20488;-68
2023/07/26 07:17:47;;;;;;;5.05;1.65;;;;;;;;;;5073454;28;20053;-67
2023/07/26 07:20:15;;;;;;;3.42;1.20;;;;;;;;;;5067312;28;20423;-67
2023/07/26 07:22:42;;;;;;;2.47;1.20;;;;;;;;;;5069155;28;20051;-68
2023/07/26 07:25:11;;;;;;;5.43;1.65;;;;;;;;;;5068870;28;20045;-68
2023/07/26 07:27:38;;;;;;;1.95;1.25;;;;;;;;;;5067887;28;20457;-67
2023/07/26 07:30:10;;;;;;;5.22;1.38;;;;;;;;;;5052255;28;20048;-68
2023/07/26 07:32:38;;;;;;;3.50;1.50;;;;;;;;;;5068507;28;20106;-68
2023/07/26 07:35:06;;;;;;;3.72;1.35;;;;;;;;;;5068882;28;20155;-68
2023/07/26 07:37:33;;;;;;;4.03;1.55;;;;;;;;;;5069354;28;20041;-68
2023/07/26 07:40:01;;;;;;;2.65;1.30;;;;;;;;;;5065600;28;20048;-68
2023/07/26 07:42:29;;;;;;;6.25;1.80;;;;;;;;;;5066312;28;20076;-68
2023/07/26 07:44:57;;;;;;;7.50;1.55;;;;;;;;;;5069420;28;20058;-68
2023/07/26 07:47:24;;;;;;;3.75;1.80;;;;;;;;;;5068634;28;20471;-66
2023/07/26 07:49:52;;;;;;;4.20;2.03;;;;;;;;;;5069748;28;20052;-66
2023/07/26 07:52:20;;;;;;;5.20;2.05;;;;;;;;;;5054822;28;20048;-66
2023/07/26 07:54:47;;;;;;;5.60;1.88;;;;;;;;;;5068455;28;20044;-67
2023/07/26 07:57:16;;;;;;;2.40;1.50;;;;;;;;;;5068334;28;20052;-66
2023/07/26 07:59:45;;;;;;;5.65;1.58;;;;;;;;;;5068398;28;20048;-66
2023/07/26 08:02:12;;;;;;;4.90;1.45;;;;;;;;;;5064198;28;20045;-66
2023/07/26 08:04:39;;;;;;;3.20;1.52;;;;;;;;;;5068331;28;20402;-66
2023/07/26 08:07:07;;;;;;;6.13;1.92;;;;;;;;;;5054945;28;20495;-66
2023/07/26 08:09:34;;;;;;;3.40;1.40;;;;;;;;;;5070822;28;20135;-66
2023/07/26 08:12:02;;;;;;;4.35;1.63;;;;;;;;;;5067844;28;20051;-67
2023/07/26 08:14:30;;;;;;;4.93;1.65;;;;;;;;;;5051641;28;20106;-66
2023/07/26 08:16:58;;;;;;;2.50;1.20;;;;;;;;;;5066385;28;20083;-66
2023/07/26 08:19:25;;;;;;;3.03;1.40;;;;;;;;;;5068430;28;20060;-66
2023/07/26 08:21:54;;;;;;;2.97;1.45;;;;;;;;;;5050635;28;20079;-65
2023/07/26 08:24:21;;;;;;;5.28;1.20;;;;;;;;;;5069204;28;20060;-68
2023/07/26 08:26:48;;;;;;;6.13;1.60;;;;;;;;;;5068139;28;20483;-67
2023/07/26 08:29:15;;;;;;;3.55;1.30;;;;;;;;;;5067727;28;20057;-67
2023/07/26 08:31:43;;;;;;;3.75;1.27;;;;;;;;;;5067542;28;20055;-67
2023/07/26 08:34:11;;;;;;;3.80;1.55;;;;;;;;;;5071989;28;20063;-67
2023/07/26 08:36:39;;;;;;;3.20;1.40;;;;;;;;;;5058873;28;20140;-67
2023/07/26 08:39:06;;;;;;;2.83;1.40;;;;;;;;;;5068048;28;20047;-69
2023/07/26 08:41:33;;;;;;;3.53;1.48;;;;;;;;;;5069163;28;20048;-68
2023/07/26 08:44:01;;;;;;;3.90;1.35;;;;;;;;;;5050486;28;20068;-68
2023/07/26 08:46:29;;;;;;;3.05;1.33;;;;;;;;;;5068196;28;20351;-69
2023/07/26 08:48:56;;;;;;;5.88;1.45;;;;;;;;;;5066453;28;20045;-67
2023/07/26 08:51:25;;;;;;;6.75;1.40;;;;;;;;;;5068685;28;20083;-69
2023/07/26 08:53:53;;;;;;;2.97;1.60;;;;;;;;;;5066598;28;20052;-69
2023/07/26 08:56:20;;;;;;;2.05;1.17;;;;;;;;;;5066230;28;20125;-69
2023/07/26 08:58:48;;;;;;;2.80;1.30;;;;;;;;;;5066477;28;20067;-68
2023/07/26 09:01:15;;;;;;;2.63;1.50;;;;;;;;;;5066817;28;20048;-69
2023/07/26 09:03:43;;;;;;;2.97;1.27;;;;;;;;;;5067277;28;20396;-69
2023/07/26 09:06:10;;;;;;;3.03;1.20;;;;;;;;;;5067794;28;20052;-69
2023/07/26 09:08:39;;;;;;;2.38;1.10;;;;;;;;;;5058026;28;20061;-70
2023/07/26 09:11:20;;;;;;;3.78;1.08;;;;;;;;;;5066962;28;20074;-70
2023/07/26 09:13:53;;;;;;;2.30;1.00;;;;;;;;;;5065746;28;20045;-70
2023/07/26 09:16:20;;;;;;;1.90;0.90;;;;;;;;;;5072257;28;20053;-71
2023/07/26 09:18:57;;;;;;;2.92;1.00;;;;;;;;;;5074060;28;20048;-71
2023/07/26 09:21:28;;;;;;;2.25;1.10;;;;;;;;;;5070724;28;20657;-71
2023/07/26 09:23:57;;;;;;;7.35;0.95;;;;;;;;;;5071364;28;20053;-71
2023/07/26 09:26:33;;;;;;;4.45;1.10;;;;;;;;;;5070376;28;20044;-72
2023/07/26 09:29:01;;;;;;;4.57;1.08;;;;;;;;;;5071324;28;20213;-72
2023/07/26 09:31:32;;;;;;;2.25;0.90;;;;;;;;;;5071215;28;20127;-72
2023/07/26 09:33:59;;;;;;;4.05;1.40;;;;;;;;;;5070350;28;20048;-72
2023/07/26 09:36:27;;;;;;;6.53;1.20;;;;;;;;;;5070037;28;20048;-72
2023/07/26 09:38:54;;;;;;;1.95;1.20;;;;;;;;;;5070630;28;20050;-72
2023/07/26 09:41:23;;;;;;;3.67;1.20;;;;;;;;;;5070601;28;20041;-75
2023/07/26 09:43:52;;;;;;;5.00;1.33;;;;;;;;;;5070253;28;20044;-73
2023/07/26 09:46:20;;;;;;;5.18;1.35;;;;;;;;;;5066532;28;20488;-75
2023/07/26 09:48:58;;;;;;;4.25;0.80;;;;;;;;;;5067370;28;20049;-76
2023/07/26 09:51:26;;;;;;;2.00;0.77;;;;;;;;;;5065182;28;20159;-75
2023/07/26 09:53:55;;;;;;;1.67;0.90;;;;;;;;;;5069546;28;20048;-75
2023/07/26 09:56:24;;;;;;;4.05;0.90;;;;;;;;;;5070074;28;20136;-75
2023/07/26 09:58:51;;;;;;;1.05;0.70;;;;;;;;;;5068495;28;20044;-75
2023/07/26 10:01:19;;;;;;;2.67;1.00;;;;;;;;;;5067146;28;20041;-75
2023/07/26 10:03:47;;;;;;;1.52;0.70;;;;;;;;;;5070212;28;20036;-74
2023/07/26 10:06:15;;;;;;;1.63;0.90;;;;;;;;;;5067619;28;20059;-75
2023/07/26 10:08:45;;;;;;;1.42;1.00;;;;;;;;;;5072340;28;20174;-75
2023/07/26 10:11:13;;;;;;;1.20;0.70;;;;;;;;;;5069310;28;20419;-75
2023/07/26 10:13:43;;;;;;;1.48;0.80;;;;;;;;;;5069837;28;20044;-75
2023/07/26 10:16:11;;;;;;;3.63;1.38;;;;;;;;;;5069811;28;20045;-75
2023/07/26 10:18:38;;;;;;;2.78;0.80;;;;;;;;;;5053534;28;20049;-74
2023/07/26 10:21:07;;;;;;;2.63;0.80;;;;;;;;;;5057675;28;20106;-74
2023/07/26 10:23:34;;;;;;;3.28;0.88;;;;;;;;;;5051127;28;20052;-75
2023/07/26 10:26:03;;;;;;;1.60;0.90;;;;;;;;;;5069735;28;20062;-72
2023/07/26 10:28:33;;;;;;;1.80;0.93;;;;;;;;;;5068652;28;20048;-73
2023/07/26 10:31:02;;;;;;;1.45;0.90;;;;;;;;;;5070459;28;20052;-74
2023/07/26 10:33:30;;;;;;;2.33;0.80;;;;;;;;;;5070429;28;20048;-74
2023/07/26 10:35:57;;;;;;;1.75;0.85;;;;;;;;;;5052764;28;20049;-75
2023/07/26 10:38:26;;;;;;;2.22;0.82;;;;;;;;;;5052503;28;20109;-74
2023/07/26 10:40:53;;;;;;;3.58;0.93;;;;;;;;;;5067426;28;20132;-74
2023/07/26 10:43:40;;;;;;;2.65;0.98;;;;;;;;;;5068567;28;20048;-74
2023/07/26 10:46:13;;;;;;;2.13;1.10;;;;;;;;;;5070403;28;20056;-75
2023/07/26 10:48:41;;;;;;;1.70;0.90;;;;;;;;;;5068735;28;20049;-75
2023/07/26 10:51:28;;;;;;;3.28;1.00;;;;;;;;;;5070413;28;20054;-74
2023/07/26 10:53:57;;;;;;;2.97;1.00;;;;;;;;;;5060905;28;20052;-74
2023/07/26 10:56:25;;;;;;;3.60;0.68;;;;;;;;;;5069738;28;20610;-74
2023/07/26 10:58:54;;;;;;;2.38;0.80;;;;;;;;;;5067598;28;20052;-74
2023/07/26 11:01:33;;;;;;;1.00;0.70;;;;;;;;;;5065832;28;20052;-74
2023/07/26 11:04:00;;;;;;;3.15;0.70;;;;;;;;;;5066823;28;20070;-74
2023/07/26 11:06:46;;;;;;;2.75;0.82;;;;;;;;;;5069902;28;20052;-75
2023/07/26 11:09:19;;;;;;;1.00;0.40;;;;;;;;;;5073980;28;20044;-74
2023/07/26 11:11:46;;;;;;;;;;;;;;;;;;5068407;28;20044;-74
2023/07/26 11:14:20;;;;;;;1.88;0.55;;;;;;;;;;5069574;28;19920;-75
2023/07/26 11:16:48;;;;;;;1.08;0.77;;;;;;;;;;5068472;28;20056;-73
2023/07/26 11:19:16;;;;;;;3.22;0.68;;;;;;;;;;5071655;28;20040;-71
2023/07/26 11:21:43;;;;;;;3.97;0.70;;;;;;;;;;5068576;28;20092;-71
2023/07/26 11:24:11;;;;;;;2.42;0.60;;;;;;;;;;5058045;28;20056;-71
2023/07/26 11:26:42;;;;;;;1.23;0.70;;;;;;;;;;5050778;28;20087;-71
2023/07/26 11:29:09;;;;;;;1.42;0.70;;;;;;;;;;5068494;28;20055;-70
2023/07/26 11:31:37;;;;;;;0.77;0.40;;;;;;;;;;5067281;28;20502;-71
2023/07/26 11:34:19;;;;;;;1.30;0.68;;;;;;;;;;5068610;28;20476;-71
2023/07/26 11:36:47;;;;;;;2.28;0.63;;;;;;;;;;5068923;28;20056;-71
2023/07/26 11:39:21;;;;;;;2.25;0.90;;;;;;;;;;5052441;28;20505;-70
2023/07/26 11:41:49;;;;;;;1.67;0.90;;;;;;;;;;5068251;28;20044;-70
2023/07/26 11:44:16;;;;;;;1.38;0.70;;;;;;;;;;5069025;28;20127;-72
2023/07/26 11:46:44;;;;;;;1.45;0.60;;;;;;;;;;5067580;28;20044;-70
2023/07/26 11:49:21;;;;;;;1.83;0.70;;;;;;;;;;5068138;28;20044;-70
2023/07/26 11:51:48;;;;;;;2.15;0.90;;;;;;;;;;5064705;28;20051;-70
2023/07/26 11:54:16;;;;;;;0.93;0.70;;;;;;;;;;5066980;28;20479;-71
2023/07/26 11:56:43;;;;;;;2.95;0.90;;;;;;;;;;5068480;28;20505;-70
2023/07/26 11:59:11;;;;;;;2.50;0.90;;;;;;;;;;5068020;28;20483;-70
2023/07/26 12:01:39;;;;;;;1.70;0.75;;;;;;;;;;5069358;28;20110;-71
2023/07/26 12:04:10;;;;;;;2.88;0.95;;;;;;;;;;5051593;28;20059;-70
2023/07/26 12:06:40;;;;;;;1.73;0.82;;;;;;;;;;5050601;28;20052;-70
2023/07/26 12:09:09;;;;;;;1.63;0.80;;;;;;;;;;5051982;28;20102;-70
2023/07/26 12:11:37;;;;;;;3.35;0.90;;;;;;;;;;5067484;28;20102;-70
2023/07/26 12:14:04;;;;;;;1.30;0.70;;;;;;;;;;5068232;28;20045;-70
2023/07/26 12:16:32;;;;;;;1.38;0.85;;;;;;;;;;5068343;28;20063;-70
2023/07/26 12:19:00;;;;;;;2.03;0.88;;;;;;;;;;5068195;28;20051;-70
2023/07/26 12:21:28;;;;;;;1.50;0.80;;;;;;;;;;5054347;28;20132;-69
2023/07/26 12:23:58;;;;;;;2.05;1.10;;;;;;;;;;5067058;28;20051;-69
2023/07/26 12:26:26;;;;;;;1.67;0.95;;;;;;;;;;5068667;28;20052;-68
2023/07/26 12:28:54;;;;;;;1.65;0.90;;;;;;;;;;5066821;28;20049;-69
2023/07/26 12:31:23;;;;;;;2.05;0.88;;;;;;;;;;5068272;28;20053;-70
2023/07/26 12:34:00;;;;;;;1.98;0.90;;;;;;;;;;5068338;28;20059;-69
2023/07/26 12:36:29;;;;;;;1.20;0.88;;;;;;;;;;5067649;28;20059;-69
2023/07/26 12:38:58;;;;;;;2.58;0.90;;;;;;;;;;5068241;28;20087;-70
2023/07/26 12:41:25;;;;;;;1.15;0.77;;;;;;;;;;5066172;28;20043;-70
2023/07/26 12:43:53;;;;;;;1.00;0.82;;;;;;;;;;5067597;28;20056;-69
2023/07/26 12:46:21;;;;;;;2.00;1.00;;;;;;;;;;5068273;28;20094;-69
2023/07/26 12:48:48;;;;;;;1.65;0.90;;;;;;;;;;5068908;28;20047;-70
2023/07/26 12:51:15;;;;;;;2.05;0.88;;;;;;;;;;5070298;28;20124;-71
2023/07/26 12:53:43;;;;;;;2.35;0.80;;;;;;;;;;5068918;28;20102;-70
2023/07/26 12:56:12;;;;;;;2.65;1.10;;;;;;;;;;5070617;28;20110;-70
2023/07/26 12:58:39;;;;;;;3.78;1.30;;;;;;;;;;5064595;28;20066;-69
2023/07/26 13:01:06;;;;;;;2.65;0.95;;;;;;;;;;5068698;28;20044;-70
2023/07/26 13:03:33;;;;;;;2.67;1.00;;;;;;;;;;5071699;28;20076;-70
2023/07/26 13:06:04;;;;;;;2.55;0.90;;;;;;;;;;5070999;28;20052;-70
2023/07/26 13:08:31;;;;;;;1.95;0.90;;;;;;;;;;5076543;28;20056;-69
2023/07/26 13:10:59;;;;;;;2.58;1.10;;;;;;;;;;5070017;28;20052;-69
2023/07/26 13:13:27;;;;;;;1.98;0.70;;;;;;;;;;5070025;28;20083;-70
2023/07/26 13:15:55;;;;;;;2.13;0.90;;;;;;;;;;5071667;28;20772;-70
2023/07/26 13:18:22;;;;;;;1.65;0.90;;;;;;;;;;5070798;28;20047;-69
2023/07/26 13:20:49;;;;;;;2.30;1.20;;;;;;;;;;5071353;28;20055;-70
2023/07/26 13:23:17;;;;;;;1.75;1.00;;;;;;;;;;5070358;28;20063;-70
2023/07/26 13:25:44;;;;;;;1.95;0.90;;;;;;;;;;5072303;28;20142;-70
2023/07/26 13:28:11;;;;;;;3.85;1.10;;;;;;;;;;5053188;28;20058;-70
2023/07/26 13:30:40;;;;;;;1.67;0.90;;;;;;;;;;5070902;28;20088;-69
2023/07/26 13:33:07;;;;;;;3.80;1.17;;;;;;;;;;5069722;28;20048;-71
2023/07/26 13:35:35;;;;;;;1.88;0.80;;;;;;;;;;5071636;28;20071;-70
2023/07/26 13:38:02;;;;;;;2.83;1.10;;;;;;;;;;5072142;28;20450;-70
2023/07/26 13:40:29;;;;;;;2.42;1.00;;;;;;;;;;5071196;28;20044;-70
2023/07/26 13:42:57;;;;;;;4.90;0.95;;;;;;;;;;5068973;28;20496;-70
2023/07/26 13:45:24;;;;;;;2.25;1.05;;;;;;;;;;5062920;28;20056;-69
2023/07/26 13:47:53;;;;;;;2.47;1.10;;;;;;;;;;5071279;28;20048;-70
2023/07/26 13:50:20;;;;;;;3.17;1.17;;;;;;;;;;5071255;28;20040;-69
2023/07/26 13:52:47;;;;;;;4.43;1.27;;;;;;;;;;5070901;28;20048;-70
2023/07/26 13:55:14;;;;;;;2.70;1.10;;;;;;;;;;5057317;28;20174;-70
2023/07/26 13:57:42;;;;;;;2.28;1.10;;;;;;;;;;5069157;28;20048;-71
2023/07/26 14:00:10;;;;;;;3.72;1.30;;;;;;;;;;5068722;28;20454;-71
2023/07/26 14:02:37;;;;;;;2.03;0.93;;;;;;;;;;5070132;28;20168;-70
2023/07/26 14:05:06;;;;;;;2.97;1.20;;;;;;;;;;5071261;28;20120;-69
2023/07/26 14:07:33;;;;;;;1.90;0.90;;;;;;;;;;5075752;28;20410;-70
2023/07/26 14:10:00;;;;;;;1.90;1.10;;;;;;;;;;5068365;28;20059;-71
2023/07/26 14:12:28;;;;;;;3.08;1.33;;;;;;;;;;5066815;28;20044;-70
2023/07/26 14:14:55;;;;;;;2.13;1.02;;;;;;;;;;5069123;28;20050;-70
2023/07/26 14:17:22;;;;;;;1.92;1.10;;;;;;;;;;5075788;28;20044;-70
2023/07/26 14:19:50;;;;;;;1.95;1.05;;;;;;;;;;5069613;28;20522;-71
2023/07/26 14:22:18;;;;;;;4.80;1.45;;;;;;;;;;5073638;28;20074;-70
2023/07/26 14:24:46;;;;;;;2.72;1.30;;;;;;;;;;5068186;28;20045;-70
2023/07/26 14:27:13;;;;;;;2.60;1.30;;;;;;;;;;5070042;28;20155;-70
2023/07/26 14:29:40;;;;;;;3.92;1.23;;;;;;;;;;5067852;28;20071;-71
2023/07/26 14:32:08;;;;;;;4.15;1.13;;;;;;;;;;5069868;28;20060;-70
2023/07/26 14:34:36;;;;;;;3.58;1.30;;;;;;;;;;5069563;28;20404;-70
2023/07/26 14:37:03;;;;;;;2.80;1.40;;;;;;;;;;5070495;28;20048;-70
2023/07/26 14:39:32;;;;;;;4.13;1.77;;;;;;;;;;5051081;28;20044;-70
2023/07/26 14:42:00;;;;;;;4.72;1.77;;;;;;;;;;5056751;28;20059;-70
2023/07/26 14:44:28;;;;;;;2.42;1.55;;;;;;;;;;5069601;28;20056;-70
2023/07/26 14:46:55;;;;;;;2.83;1.40;;;;;;;;;;5069226;28;20252;-71
2023/07/26 14:49:22;;;;;;;2.42;1.50;;;;;;;;;;5069351;28;20384;-70